createdAt,value
2019-01-06T00:00:43.453Z,1028.30
2019-01-06T00:01:43.534Z,1028.25
2019-01-06T00:02:43.394Z,1028.32
2019-01-06T00:03:43.434Z,1028.29
2019-01-06T00:04:43.331Z,1028.39
2019-01-06T00:05:43.352Z,1028.37
2019-01-06T00:06:43.282Z,1028.38
2019-01-06T00:07:43.277Z,1028.38
2019-01-06T00:08:43.222Z,1028.39
2019-01-06T00:09:43.199Z,1028.41
2019-01-06T00:10:43.183Z,1028.44
2019-01-06T00:11:43.144Z,1028.45
2019-01-06T00:12:43.193Z,1028.40
2019-01-06T00:13:43.082Z,1028.38
2019-01-06T00:14:43.057Z,1028.40
2019-01-06T00:15:43.114Z,1028.35
2019-01-06T00:16:42.992Z,1028.36
2019-01-06T00:17:43.023Z,1028.41
2019-01-06T00:18:42.933Z,1028.43
2019-01-06T00:19:42.933Z,1028.37
2019-01-06T00:20:42.893Z,1028.37
2019-01-06T00:21:42.942Z,1028.43
2019-01-06T00:22:42.825Z,1028.38
2019-01-06T00:23:42.857Z,1028.39
2019-01-06T00:24:42.764Z,1028.35
2019-01-06T00:25:42.736Z,1028.39
2019-01-06T00:26:42.773Z,1028.41
2019-01-06T00:27:42.673Z,1028.40
2019-01-06T00:28:42.683Z,1028.41
2019-01-06T00:29:42.623Z,1028.45
2019-01-06T00:30:42.592Z,1028.45
2019-01-06T00:31:42.577Z,1028.38
2019-01-06T00:32:42.601Z,1028.32
2019-01-06T00:33:42.502Z,1028.38
2019-01-06T00:34:42.514Z,1028.42
2019-01-06T00:35:42.443Z,1028.42
2019-01-06T00:36:42.411Z,1028.41
2019-01-06T00:37:42.432Z,1028.38
2019-01-06T00:38:42.373Z,1028.40
2019-01-06T00:39:42.445Z,1028.40
2019-01-06T00:40:42.303Z,1028.45
2019-01-06T00:41:42.285Z,1028.45
2019-01-06T00:42:42.247Z,1028.44
2019-01-06T00:43:42.273Z,1028.48
2019-01-06T00:44:42.193Z,1028.44
2019-01-06T00:45:42.251Z,1028.50
2019-01-06T00:46:42.132Z,1028.53
2019-01-06T00:47:42.204Z,1028.55
2019-01-06T00:48:42.086Z,1028.62
2019-01-06T00:49:42.105Z,1028.63
2019-01-06T00:50:42.012Z,1028.62
2019-01-06T00:51:42.014Z,1028.68
2019-01-06T00:52:41.959Z,1028.60
2019-01-06T00:53:42.022Z,1028.57
2019-01-06T00:54:41.902Z,1028.59
2019-01-06T00:55:41.931Z,1028.64
2019-01-06T00:56:41.854Z,1028.64
2019-01-06T00:57:41.814Z,1028.70
2019-01-06T00:58:41.782Z,1028.64
2019-01-06T00:59:41.854Z,1028.68
2019-01-06T01:00:41.743Z,1028.66
2019-01-06T01:01:41.762Z,1028.65
2019-01-06T01:02:41.672Z,1028.64
2019-01-06T01:03:41.632Z,1028.64
2019-01-06T01:04:41.616Z,1028.65
2019-01-06T01:05:41.687Z,1028.70
2019-01-06T01:06:41.563Z,1028.68
2019-01-06T01:07:41.606Z,1028.71
2019-01-06T01:08:41.607Z,1028.73
2019-01-06T01:09:41.473Z,1028.70
2019-01-06T01:10:41.516Z,1028.66
2019-01-06T01:11:41.414Z,1028.70
2019-01-06T01:12:41.421Z,1028.68
2019-01-06T01:13:41.363Z,1028.66
2019-01-06T01:14:41.325Z,1028.65
2019-01-06T01:15:41.345Z,1028.71
2019-01-06T01:16:41.276Z,1028.65
2019-01-06T01:17:41.255Z,1028.67
2019-01-06T01:18:41.213Z,1028.70
2019-01-06T01:19:41.835Z,1028.74
2019-01-06T01:20:41.163Z,1028.72
2019-01-06T01:21:41.124Z,1028.80
2019-01-06T01:22:41.183Z,1028.86
2019-01-06T01:23:41.064Z,1028.83
2019-01-06T01:24:41.094Z,1028.86
2019-01-06T01:25:41.005Z,1028.81
2019-01-06T01:26:48.077Z,1028.75
2019-01-06T01:27:40.963Z,1028.78
2019-01-06T01:28:41.012Z,1028.86
2019-01-06T01:29:40.892Z,1028.82
2019-01-06T01:30:40.874Z,1028.82
2019-01-06T01:31:40.933Z,1028.86
2019-01-06T01:32:40.804Z,1028.84
2019-01-06T01:33:40.843Z,1028.92
2019-01-06T01:34:40.743Z,1028.91
2019-01-06T01:35:40.718Z,1028.89
2019-01-06T01:36:40.692Z,1028.86
2019-01-06T01:37:40.762Z,1028.86
2019-01-06T01:38:40.634Z,1028.92
2019-01-06T01:39:40.676Z,1028.86
2019-01-06T01:40:40.584Z,1028.93
2019-01-06T01:41:40.543Z,1028.87
2019-01-06T01:42:40.605Z,1028.87
2019-01-06T01:43:40.493Z,1028.93
2019-01-06T01:44:40.505Z,1028.96
2019-01-06T01:45:40.434Z,1028.91
2019-01-06T01:46:40.403Z,1028.93
2019-01-06T01:47:40.374Z,1028.92
2019-01-06T01:48:40.423Z,1028.85
2019-01-06T01:49:40.312Z,1028.97
2019-01-06T01:50:40.334Z,1028.96
2019-01-06T01:51:40.253Z,1028.97
2019-01-06T01:52:47.594Z,1029.07
2019-01-06T01:54:44.326Z,1029.09
2019-01-06T01:55:44.225Z,1029.06
2019-01-06T01:57:48.172Z,1028.99
2019-01-06T01:58:48.202Z,1029.00
2019-01-06T02:00:52.143Z,1029.03
2019-01-06T02:01:52.043Z,1029.06
2019-01-06T02:03:56.053Z,1029.06
2019-01-06T02:04:55.953Z,1029.04
2019-01-06T02:06:59.903Z,1029.03
2019-01-06T02:07:59.933Z,1029.03
2019-01-06T02:10:03.822Z,1029.01
2019-01-06T02:11:03.772Z,1029.00
2019-01-06T02:13:07.727Z,1029.06
2019-01-06T02:14:07.684Z,1029.03
2019-01-06T02:16:11.692Z,1029.07
2019-01-06T02:17:11.594Z,1029.00
2019-01-06T02:19:15.603Z,1029.00
2019-01-06T02:20:15.507Z,1029.03
2019-01-06T02:22:08.466Z,1028.98
2019-01-06T02:23:08.353Z,1029.02
2019-01-06T02:25:12.464Z,1029.02
2019-01-06T02:26:12.364Z,1028.99
2019-01-06T02:28:16.372Z,1029.06
2019-01-06T02:29:16.272Z,1029.03
2019-01-06T02:31:20.299Z,1029.00
2019-01-06T02:32:20.184Z,1028.99
2019-01-06T02:34:24.205Z,1029.05
2019-01-06T02:35:24.102Z,1029.00
2019-01-06T02:37:28.122Z,1028.99
2019-01-06T02:38:28.016Z,1029.01
2019-01-06T02:40:32.013Z,1029.05
2019-01-06T02:41:31.912Z,1029.04
2019-01-06T02:43:35.923Z,1029.06
2019-01-06T02:44:35.831Z,1029.06
2019-01-06T02:46:39.846Z,1029.06
2019-01-06T02:47:39.740Z,1029.08
2019-01-06T02:49:43.741Z,1029.06
2019-01-06T02:50:43.723Z,1029.03
2019-01-06T02:52:36.590Z,1029.07
2019-01-06T02:53:36.500Z,1029.03
2019-01-06T02:55:40.527Z,1029.03
2019-01-06T02:56:40.418Z,1029.02
2019-01-06T02:58:44.424Z,1029.02
2019-01-06T02:59:44.321Z,1029.04
2019-01-06T03:01:48.329Z,1028.96
2019-01-06T03:02:48.242Z,1028.95
2019-01-06T03:04:52.244Z,1029.01
2019-01-06T03:05:52.153Z,1028.94
2019-01-06T03:07:56.140Z,1028.91
2019-01-06T03:08:56.050Z,1028.87
2019-01-06T03:11:00.053Z,1028.88
2019-01-06T03:11:59.972Z,1028.88
2019-01-06T03:14:03.961Z,1028.88
2019-01-06T03:15:03.876Z,1028.80
2019-01-06T03:17:07.871Z,1028.80
2019-01-06T03:18:07.791Z,1028.86
2019-01-06T03:20:11.791Z,1028.82
2019-01-06T03:21:11.694Z,1028.75
2019-01-06T03:23:15.690Z,1028.82
2019-01-06T03:24:15.591Z,1028.82
2019-01-06T03:26:19.600Z,1028.78
2019-01-06T03:27:19.513Z,1028.77
2019-01-06T03:29:23.509Z,1028.80
2019-01-06T03:30:23.411Z,1028.77
2019-01-06T03:32:16.572Z,1028.81
2019-01-06T03:33:16.366Z,1028.82
2019-01-06T03:35:20.383Z,1028.78
2019-01-06T03:36:20.282Z,1028.80
2019-01-06T03:38:24.291Z,1028.81
2019-01-06T03:39:24.193Z,1028.76
2019-01-06T03:41:28.221Z,1028.74
2019-01-06T03:42:28.104Z,1028.76
2019-01-06T03:44:32.123Z,1028.75
2019-01-06T03:45:32.013Z,1028.73
2019-01-06T03:47:36.140Z,1028.73
2019-01-06T03:48:36.032Z,1028.73
2019-01-06T03:50:40.151Z,1028.69
2019-01-06T03:51:40.053Z,1028.67
2019-01-06T03:53:43.996Z,1028.71
2019-01-06T03:54:43.963Z,1028.69
2019-01-06T03:56:47.970Z,1028.59
2019-01-06T03:57:47.871Z,1028.61
2019-01-06T03:59:51.805Z,1028.61
2019-01-06T04:00:51.770Z,1028.59
2019-01-06T04:02:44.710Z,1028.61
2019-01-06T04:03:44.624Z,1028.57
2019-01-06T04:05:48.572Z,1028.55
2019-01-06T04:06:48.532Z,1028.49
2019-01-06T04:08:52.543Z,1028.46
2019-01-06T04:09:52.431Z,1028.46
2019-01-06T04:11:56.445Z,1028.48
2019-01-06T04:12:56.351Z,1028.42
2019-01-06T04:15:00.349Z,1028.40
2019-01-06T04:16:00.321Z,1028.41
2019-01-06T04:18:04.273Z,1028.39
2019-01-06T04:19:04.173Z,1028.41
2019-01-06T04:21:08.109Z,1028.38
2019-01-06T04:22:08.083Z,1028.43
2019-01-06T04:24:12.090Z,1028.43
2019-01-06T04:25:11.991Z,1028.43
2019-01-06T04:27:16.002Z,1028.41
2019-01-06T04:28:15.904Z,1028.43
2019-01-06T04:30:19.911Z,1028.44
2019-01-06T04:31:19.813Z,1028.43
2019-01-06T04:33:23.821Z,1028.38
2019-01-06T04:34:23.717Z,1028.36
2019-01-06T04:36:27.733Z,1028.43
2019-01-06T04:37:27.619Z,1028.34
2019-01-06T04:39:31.631Z,1028.37
2019-01-06T04:40:31.530Z,1028.41
2019-01-06T04:42:24.491Z,1028.31
2019-01-06T04:43:24.391Z,1028.35
2019-01-06T04:45:28.343Z,1028.34
2019-01-06T04:46:28.371Z,1028.31
2019-01-06T04:48:32.250Z,1028.28
2019-01-06T04:49:32.321Z,1028.33
2019-01-06T04:51:36.211Z,1028.31
2019-01-06T04:52:36.131Z,1028.32
2019-01-06T04:54:40.129Z,1028.27
2019-01-06T04:55:40.028Z,1028.28
2019-01-06T04:57:43.979Z,1028.27
2019-01-06T04:58:44.010Z,1028.21
2019-01-06T05:00:47.900Z,1028.19
2019-01-06T05:01:47.914Z,1028.20
2019-01-06T05:03:51.790Z,1028.16
2019-01-06T05:04:51.776Z,1028.15
2019-01-06T05:06:55.772Z,1028.13
2019-01-06T05:07:55.673Z,1028.18
2019-01-06T05:09:59.672Z,1028.18
2019-01-06T05:10:59.570Z,1028.17
2019-01-06T05:12:52.531Z,1028.16
2019-01-06T05:13:52.442Z,1028.15
2019-01-06T05:15:56.442Z,1028.12
2019-01-06T05:16:56.345Z,1028.13
2019-01-06T05:19:00.352Z,1028.09
2019-01-06T05:20:00.277Z,1028.12
2019-01-06T05:22:04.262Z,1028.20
2019-01-06T05:23:04.168Z,1028.17
2019-01-06T05:25:08.171Z,1028.23
2019-01-06T05:26:08.070Z,1028.23
2019-01-06T05:28:12.033Z,1028.26
2019-01-06T05:29:11.981Z,1028.27
2019-01-06T05:31:15.991Z,1028.26
2019-01-06T05:32:15.891Z,1028.26
2019-01-06T05:34:19.911Z,1028.30
2019-01-06T05:35:19.802Z,1028.25
2019-01-06T05:37:23.810Z,1028.28
2019-01-06T05:38:23.710Z,1028.28
2019-01-06T05:40:27.720Z,1028.29
2019-01-06T05:41:27.693Z,1028.31
2019-01-06T05:43:31.634Z,1028.33
2019-01-06T05:44:31.531Z,1028.32
2019-01-06T05:46:35.481Z,1028.34
2019-01-06T05:47:35.453Z,1028.39
2019-01-06T05:49:39.402Z,1028.35
2019-01-06T05:50:39.431Z,1028.35
2019-01-06T05:52:32.241Z,1028.36
2019-01-06T05:53:32.271Z,1028.36
2019-01-06T05:55:36.210Z,1028.33
2019-01-06T05:56:36.112Z,1028.37
2019-01-06T05:58:40.126Z,1028.43
2019-01-06T05:59:40.020Z,1028.43
2019-01-06T06:01:44.030Z,1028.43
2019-01-06T06:02:44.001Z,1028.45
2019-01-06T06:04:47.941Z,1028.48
2019-01-06T06:05:47.851Z,1028.47
2019-01-06T06:07:51.790Z,1028.49
2019-01-06T06:08:51.751Z,1028.51
2019-01-06T06:10:55.772Z,1028.52
2019-01-06T06:11:55.660Z,1028.55
2019-01-06T06:13:59.669Z,1028.57
2019-01-06T06:14:59.582Z,1028.57
2019-01-06T06:17:03.524Z,1028.65
2019-01-06T06:18:05.593Z,1028.66
2019-01-06T06:20:07.501Z,1028.66
2019-01-06T06:21:07.415Z,1028.66
2019-01-06T06:23:11.361Z,1028.65
2019-01-06T06:24:11.311Z,1028.73
2019-01-06T06:26:15.313Z,1028.68
2019-01-06T06:27:15.212Z,1028.71
2019-01-06T06:29:19.161Z,1028.68
2019-01-06T06:30:19.124Z,1028.73
2019-01-06T06:32:12.080Z,1028.75
2019-01-06T06:33:11.987Z,1028.72
2019-01-06T06:35:15.990Z,1028.72
2019-01-06T06:36:15.891Z,1028.73
2019-01-06T06:38:19.893Z,1028.74
2019-01-06T06:39:19.801Z,1028.79
2019-01-06T06:41:23.801Z,1028.79
2019-01-06T06:42:23.701Z,1028.79
2019-01-06T06:44:27.711Z,1028.77
2019-01-06T06:45:27.680Z,1028.80
2019-01-06T06:47:31.621Z,1028.83
2019-01-06T06:48:31.520Z,1028.80
2019-01-06T06:50:35.471Z,1028.82
2019-01-06T06:51:35.440Z,1028.84
2019-01-06T06:52:35.511Z,1028.87
2019-01-06T06:53:35.370Z,1028.82
2019-01-06T06:54:35.420Z,1028.84
2019-01-06T06:55:35.322Z,1028.82
2019-01-06T06:56:35.312Z,1028.85
2019-01-06T06:57:35.331Z,1028.89
2019-01-06T06:58:35.232Z,1028.86
2019-01-06T06:59:35.240Z,1028.86
2019-01-06T07:00:35.169Z,1028.89
2019-01-06T07:01:35.149Z,1028.89
2019-01-06T07:02:35.112Z,1028.92
2019-01-06T07:03:35.171Z,1028.89
2019-01-06T07:04:35.052Z,1028.93
2019-01-06T07:05:35.083Z,1028.94
2019-01-06T07:06:34.990Z,1028.95
2019-01-06T07:07:34.994Z,1028.95
2019-01-06T07:08:34.941Z,1029.01
2019-01-06T07:09:35.003Z,1029.01
2019-01-06T07:10:34.881Z,1028.97
2019-01-06T07:11:34.911Z,1029.00
2019-01-06T07:12:34.833Z,1029.02
2019-01-06T07:13:34.822Z,1029.01
2019-01-06T07:14:34.761Z,1029.02
2019-01-06T07:15:34.831Z,1029.01
2019-01-06T07:16:34.711Z,1029.05
2019-01-06T07:17:34.671Z,1029.05
2019-01-06T07:18:34.641Z,1029.06
2019-01-06T07:19:34.649Z,1029.09
2019-01-06T07:20:34.589Z,1029.12
2019-01-06T07:21:34.662Z,1029.13
2019-01-06T07:22:34.534Z,1029.14
2019-01-06T07:23:34.572Z,1029.11
2019-01-06T07:24:34.471Z,1029.12
2019-01-06T07:25:34.490Z,1029.15
2019-01-06T07:26:34.421Z,1029.17
2019-01-06T07:27:34.390Z,1029.17
2019-01-06T07:28:34.354Z,1029.12
2019-01-06T07:29:34.414Z,1029.22
2019-01-06T07:30:34.299Z,1029.24
2019-01-06T07:31:34.320Z,1029.25
2019-01-06T07:32:34.244Z,1029.22
2019-01-06T07:33:34.209Z,1029.27
2019-01-06T07:34:34.230Z,1029.31
2019-01-06T07:35:34.153Z,1029.30
2019-01-06T07:36:34.140Z,1029.31
2019-01-06T07:37:34.092Z,1029.32
2019-01-06T07:38:34.060Z,1029.34
2019-01-06T07:39:34.029Z,1029.35
2019-01-06T07:40:34.070Z,1029.34
2019-01-06T07:41:33.981Z,1029.36
2019-01-06T07:42:33.979Z,1029.37
2019-01-06T07:43:33.920Z,1029.39
2019-01-06T07:44:33.900Z,1029.41
2019-01-06T07:45:33.902Z,1029.43
2019-01-06T07:46:33.833Z,1029.41
2019-01-06T07:47:33.910Z,1029.41
2019-01-06T07:48:33.771Z,1029.43
2019-01-06T07:49:33.751Z,1029.41
2019-01-06T07:50:33.711Z,1029.45
2019-01-06T07:51:33.740Z,1029.45
2019-01-06T07:52:33.651Z,1029.43
2019-01-06T07:53:33.730Z,1029.45
2019-01-06T07:54:33.642Z,1029.43
2019-01-06T07:55:33.574Z,1029.44
2019-01-06T07:56:33.691Z,1029.41
2019-01-06T07:57:33.512Z,1029.47
2019-01-06T07:58:33.573Z,1029.48
2019-01-06T07:59:33.450Z,1029.47
2019-01-06T08:00:33.556Z,1029.44
2019-01-06T08:01:33.393Z,1029.46
2019-01-06T08:02:34.411Z,1029.50
2019-01-06T08:03:33.332Z,1029.51
2019-01-06T08:04:33.403Z,1029.49
2019-01-06T08:05:33.301Z,1029.48
2019-01-06T08:06:33.254Z,1029.51
2019-01-06T08:07:33.319Z,1029.50
2019-01-06T08:08:33.179Z,1029.53
2019-01-06T08:09:33.231Z,1029.55
2019-01-06T08:10:33.239Z,1029.48
2019-01-06T08:11:33.100Z,1029.51
2019-01-06T08:12:33.150Z,1029.51
2019-01-06T08:13:33.041Z,1029.48
2019-01-06T08:14:33.059Z,1029.49
2019-01-06T08:15:32.993Z,1029.53
2019-01-06T08:16:32.972Z,1029.53
2019-01-06T08:17:32.931Z,1029.54
2019-01-06T08:18:32.989Z,1029.51
2019-01-06T08:19:32.884Z,1029.55
2019-01-06T08:20:33.012Z,1029.58
2019-01-06T08:21:32.810Z,1029.57
2019-01-06T08:22:32.811Z,1029.52
2019-01-06T08:23:32.752Z,1029.56
2019-01-06T08:24:32.821Z,1029.56
2019-01-06T08:25:32.700Z,1029.56
2019-01-06T08:26:32.661Z,1029.53
2019-01-06T08:27:32.642Z,1029.54
2019-01-06T08:28:32.654Z,1029.56
2019-01-06T08:29:32.580Z,1029.51
2019-01-06T08:30:32.561Z,1029.55
2019-01-06T08:31:32.521Z,1029.57
2019-01-06T08:32:32.493Z,1029.59
2019-01-06T08:33:32.481Z,1029.56
2019-01-06T08:34:32.430Z,1029.60
2019-01-06T08:35:32.498Z,1029.61
2019-01-06T08:36:32.372Z,1029.63
2019-01-06T08:37:32.340Z,1029.60
2019-01-06T08:38:32.421Z,1029.63
2019-01-06T08:39:32.281Z,1029.58
2019-01-06T08:40:32.322Z,1029.65
2019-01-06T08:41:32.220Z,1029.57
2019-01-06T08:42:32.231Z,1029.57
2019-01-06T08:43:32.160Z,1029.58
2019-01-06T08:44:32.261Z,1029.60
2019-01-06T08:45:32.110Z,1029.59
2019-01-06T08:46:32.160Z,1029.64
2019-01-06T08:47:32.051Z,1029.64
2019-01-06T08:48:32.032Z,1029.63
2019-01-06T08:49:32.001Z,1029.61
2019-01-06T08:50:31.980Z,1029.68
2019-01-06T08:51:31.931Z,1029.67
2019-01-06T08:52:32.001Z,1029.60
2019-01-06T08:53:31.881Z,1029.68
2019-01-06T08:54:31.910Z,1029.67
2019-01-06T08:55:31.809Z,1029.66
2019-01-06T08:56:32.527Z,1029.67
2019-01-06T08:57:31.763Z,1029.71
2019-01-06T08:58:31.836Z,1029.71
2019-01-06T08:59:31.723Z,1029.71
2019-01-06T09:00:31.749Z,1029.70
2019-01-06T09:01:31.641Z,1029.68
2019-01-06T09:02:31.671Z,1029.70
2019-01-06T09:03:31.592Z,1029.69
2019-01-06T09:04:31.564Z,1029.64
2019-01-06T09:05:31.531Z,1029.75
2019-01-06T09:06:31.582Z,1029.69
2019-01-06T09:07:31.486Z,1029.69
2019-01-06T09:08:31.516Z,1029.74
2019-01-06T09:09:31.419Z,1029.71
2019-01-06T09:10:31.379Z,1029.78
2019-01-06T09:11:31.416Z,1029.75
2019-01-06T09:12:31.320Z,1029.75
2019-01-06T09:13:31.330Z,1029.79
2019-01-06T09:14:31.269Z,1029.75
2019-01-06T09:15:31.241Z,1029.77
2019-01-06T09:16:31.259Z,1029.76
2019-01-06T09:17:31.185Z,1029.73
2019-01-06T09:18:31.261Z,1029.80
2019-01-06T09:19:31.123Z,1029.80
2019-01-06T09:20:31.089Z,1029.81
2019-01-06T09:21:31.071Z,1029.82
2019-01-06T09:22:31.191Z,1029.82
2019-01-06T09:23:31.012Z,1029.80
2019-01-06T09:24:31.100Z,1029.90
2019-01-06T09:25:30.949Z,1029.85
2019-01-06T09:26:30.923Z,1029.94
2019-01-06T09:27:31.024Z,1029.92
2019-01-06T09:28:30.870Z,1029.92
2019-01-06T09:29:32.425Z,1029.91
2019-01-06T09:30:30.801Z,1029.86
2019-01-06T09:31:30.781Z,1029.91
2019-01-06T09:32:30.743Z,1029.89
2019-01-06T09:33:30.850Z,1029.93
2019-01-06T09:34:30.690Z,1029.89
2019-01-06T09:35:31.201Z,1029.86
2019-01-06T09:36:30.632Z,1029.86
2019-01-06T09:37:30.679Z,1029.91
2019-01-06T09:38:30.573Z,1029.91
2019-01-06T09:39:30.604Z,1029.89
2019-01-06T09:40:30.513Z,1029.93
2019-01-06T09:41:30.503Z,1029.95
2019-01-06T09:42:30.510Z,1029.98
2019-01-06T09:43:30.420Z,1029.98
2019-01-06T09:44:30.420Z,1029.95
2019-01-06T09:45:31.074Z,1029.98
2019-01-06T09:46:30.442Z,1029.94
2019-01-06T09:47:30.312Z,1029.93
2019-01-06T09:48:30.351Z,1029.96
2019-01-06T09:49:30.259Z,1029.94
2019-01-06T09:50:30.259Z,1029.99
2019-01-06T09:51:30.193Z,1030.05
2019-01-06T09:52:30.281Z,1030.04
2019-01-06T09:53:30.141Z,1030.02
2019-01-06T09:54:30.182Z,1030.04
2019-01-06T09:55:30.091Z,1030.06
2019-01-06T09:56:30.176Z,1030.08
2019-01-06T09:57:30.032Z,1030.07
2019-01-06T09:58:29.996Z,1030.07
2019-01-06T09:59:29.985Z,1030.08
2019-01-06T10:00:30.022Z,1030.09
2019-01-06T10:01:29.919Z,1030.09
2019-01-06T10:02:29.935Z,1030.05
2019-01-06T10:03:29.854Z,1030.07
2019-01-06T10:04:34.969Z,1030.06
2019-01-06T10:05:29.868Z,1030.03
2019-01-06T10:06:29.761Z,1030.07
2019-01-06T10:07:29.761Z,1030.08
2019-01-06T10:08:29.713Z,1030.11
2019-01-06T10:09:29.679Z,1030.12
2019-01-06T10:10:29.679Z,1030.10
2019-01-06T10:11:29.621Z,1030.10
2019-01-06T10:12:29.690Z,1030.14
2019-01-06T10:13:29.561Z,1030.14
2019-01-06T10:14:29.538Z,1030.13
2019-01-06T10:15:29.513Z,1030.11
2019-01-06T10:16:29.520Z,1030.09
2019-01-06T10:17:29.446Z,1030.11
2019-01-06T10:18:29.539Z,1030.14
2019-01-06T10:19:29.391Z,1030.13
2019-01-06T10:20:29.364Z,1030.10
2019-01-06T10:21:29.350Z,1030.12
2019-01-06T10:22:29.311Z,1030.12
2019-01-06T10:23:29.363Z,1030.13
2019-01-06T10:24:29.254Z,1030.12
2019-01-06T10:25:29.229Z,1030.16
2019-01-06T10:26:29.202Z,1030.16
2019-01-06T10:27:29.189Z,1030.23
2019-01-06T10:28:29.131Z,1030.24
2019-01-06T10:29:29.200Z,1030.29
2019-01-06T10:30:29.080Z,1030.24
2019-01-06T10:31:29.053Z,1030.28
2019-01-06T10:32:29.133Z,1030.26
2019-01-06T10:33:29.003Z,1030.35
2019-01-06T10:34:29.031Z,1030.35
2019-01-06T10:35:28.949Z,1030.30
2019-01-06T10:36:28.912Z,1030.24
2019-01-06T10:37:28.892Z,1030.27
2019-01-06T10:38:28.960Z,1030.30
2019-01-06T10:39:28.832Z,1030.25
2019-01-06T10:40:28.870Z,1030.21
2019-01-06T10:41:28.770Z,1030.22
2019-01-06T10:42:28.751Z,1030.19
2019-01-06T10:43:28.792Z,1030.24
2019-01-06T10:44:28.691Z,1030.28
2019-01-06T10:45:28.701Z,1030.28
2019-01-06T10:46:28.643Z,1030.24
2019-01-06T10:47:28.625Z,1030.21
2019-01-06T10:48:28.624Z,1030.21
2019-01-06T10:49:28.572Z,1030.28
2019-01-06T10:50:28.635Z,1030.32
2019-01-06T10:51:28.512Z,1030.44
2019-01-06T10:52:28.487Z,1030.53
2019-01-06T10:53:28.456Z,1030.64
2019-01-06T10:54:28.471Z,1030.23
2019-01-06T10:55:28.400Z,1030.23
2019-01-06T10:56:28.472Z,1030.16
2019-01-06T10:57:28.352Z,1030.16
2019-01-06T10:58:28.335Z,1030.23
2019-01-06T10:59:28.301Z,1030.20
2019-01-06T11:00:28.292Z,1030.20
2019-01-06T11:01:28.251Z,1030.10
2019-01-06T11:02:29.421Z,1030.12
2019-01-06T11:03:28.212Z,1030.15
2019-01-06T11:04:28.161Z,1030.25
2019-01-06T11:05:28.234Z,1030.26
2019-01-06T11:06:28.122Z,1030.62
2019-01-06T11:07:28.145Z,1030.43
2019-01-06T11:08:28.062Z,1031.00
2019-01-06T11:09:28.031Z,1030.43
2019-01-06T11:10:28.060Z,1030.71
2019-01-06T11:11:27.980Z,1030.65
2019-01-06T11:12:28.072Z,1030.86
2019-01-06T11:13:27.942Z,1030.89
2019-01-06T11:14:27.910Z,1030.78
2019-01-06T11:15:27.894Z,1030.73
2019-01-06T11:16:27.891Z,1030.61
2019-01-06T11:17:27.852Z,1030.69
2019-01-06T11:18:27.909Z,1030.73
2019-01-06T11:19:27.801Z,1030.52
2019-01-06T11:20:27.821Z,1030.77
2019-01-06T11:21:27.755Z,1030.84
2019-01-06T11:22:27.831Z,1030.66
2019-01-06T11:23:27.712Z,1030.74
2019-01-06T11:24:27.754Z,1030.72
2019-01-06T11:25:27.662Z,1030.64
2019-01-06T11:26:27.662Z,1030.72
2019-01-06T11:27:27.657Z,1030.47
2019-01-06T11:28:27.670Z,1030.51
2019-01-06T11:29:27.580Z,1030.67
2019-01-06T11:30:27.549Z,1030.64
2019-01-06T11:31:27.530Z,1031.16
2019-01-06T11:32:27.602Z,1031.18
2019-01-06T11:33:27.490Z,1031.17
2019-01-06T11:34:27.514Z,1031.17
2019-01-06T11:35:27.455Z,1030.61
2019-01-06T11:36:27.431Z,1030.44
2019-01-06T11:37:27.432Z,1030.56
2019-01-06T11:38:27.393Z,1031.30
2019-01-06T11:39:27.441Z,1030.51
2019-01-06T11:40:27.342Z,1031.33
2019-01-06T11:41:27.331Z,1031.27
2019-01-06T11:42:27.314Z,1030.73
2019-01-06T11:43:27.374Z,1031.26
2019-01-06T11:44:27.281Z,1031.27
2019-01-06T11:45:27.281Z,1031.29
2019-01-06T11:46:27.234Z,1031.29
2019-01-06T11:47:27.293Z,1031.33
2019-01-06T11:48:27.203Z,1031.32
2019-01-06T11:49:27.215Z,1031.31
2019-01-06T11:50:27.165Z,1031.02
2019-01-06T11:51:27.221Z,1030.76
2019-01-06T11:52:27.235Z,1030.60
2019-01-06T11:53:27.110Z,1030.57
2019-01-06T11:54:27.142Z,1030.61
2019-01-06T11:55:27.073Z,1030.63
2019-01-06T11:56:27.152Z,1030.51
2019-01-06T11:57:27.041Z,1030.32
2019-01-06T11:58:27.061Z,1030.32
2019-01-06T11:59:27.001Z,1030.32
2019-01-06T12:00:27.087Z,1030.29
2019-01-06T12:01:26.974Z,1030.22
2019-01-06T12:02:27.004Z,1030.54
2019-01-06T12:03:27.008Z,1030.44
2019-01-06T12:04:26.913Z,1030.50
2019-01-06T12:05:26.913Z,1030.61
2019-01-06T12:06:26.872Z,1030.49
2019-01-06T12:07:26.922Z,1030.38
2019-01-06T12:08:27.014Z,1030.68
2019-01-06T12:09:26.824Z,1031.10
2019-01-06T12:10:26.843Z,1031.35
2019-01-06T12:11:26.830Z,1031.28
2019-01-06T12:12:26.859Z,1030.28
2019-01-06T12:13:26.730Z,1030.13
2019-01-06T12:14:26.770Z,1030.11
2019-01-06T12:15:26.691Z,1030.14
2019-01-06T12:16:26.784Z,1030.13
2019-01-06T12:17:26.655Z,1030.03
2019-01-06T12:18:26.704Z,1030.01
2019-01-06T12:19:33.538Z,1030.02
2019-01-06T12:20:26.745Z,1030.43
2019-01-06T12:21:26.580Z,1030.12
2019-01-06T12:22:26.622Z,1030.34
2019-01-06T12:23:26.529Z,1030.12
2019-01-06T12:24:26.513Z,1030.35
2019-01-06T12:25:26.542Z,1030.41
2019-01-06T12:26:26.479Z,1030.61
2019-01-06T12:27:26.551Z,1030.66
2019-01-06T12:28:26.440Z,1030.54
2019-01-06T12:29:26.425Z,1029.97
2019-01-06T12:30:26.389Z,1029.98
2019-01-06T12:31:26.549Z,1029.94
2019-01-06T12:32:26.351Z,1029.89
2019-01-06T12:33:26.391Z,1029.86
2019-01-06T12:34:26.323Z,1029.83
2019-01-06T12:35:26.314Z,1029.83
2019-01-06T12:36:26.262Z,1029.82
2019-01-06T12:37:26.321Z,1029.76
2019-01-06T12:38:26.224Z,1029.84
2019-01-06T12:39:26.231Z,1029.84
2019-01-06T12:40:26.180Z,1029.80
2019-01-06T12:41:26.253Z,1029.82
2019-01-06T12:42:26.128Z,1029.85
2019-01-06T12:43:26.163Z,1029.85
2019-01-06T12:44:27.035Z,1029.83
2019-01-06T12:45:26.076Z,1029.81
2019-01-06T12:46:26.050Z,1029.80
2019-01-06T12:47:26.080Z,1029.83
2019-01-06T12:48:25.992Z,1029.84
2019-01-06T12:49:25.990Z,1029.84
2019-01-06T12:50:26.246Z,1029.83
2019-01-06T12:51:25.920Z,1029.83
2019-01-06T12:52:26.012Z,1029.84
2019-01-06T12:53:25.880Z,1029.81
2019-01-06T12:54:25.929Z,1029.82
2019-01-06T12:55:25.833Z,1029.82
2019-01-06T12:56:25.811Z,1029.81
2019-01-06T12:57:25.779Z,1029.86
2019-01-06T12:58:25.850Z,1029.89
2019-01-06T12:59:25.760Z,1029.83
2019-01-06T13:00:25.763Z,1029.84
2019-01-06T13:01:25.692Z,1029.84
2019-01-06T13:02:25.682Z,1029.89
2019-01-06T13:03:25.632Z,1029.89
2019-01-06T13:04:25.719Z,1029.87
2019-01-06T13:05:25.580Z,1029.87
2019-01-06T13:06:25.601Z,1029.85
2019-01-06T13:07:25.531Z,1030.12
2019-01-06T13:08:25.513Z,1030.13
2019-01-06T13:09:25.522Z,1030.05
2019-01-06T13:10:25.459Z,1029.88
2019-01-06T13:11:25.531Z,1029.85
2019-01-06T13:12:25.408Z,1029.85
2019-01-06T13:13:25.449Z,1029.86
2019-01-06T13:14:25.360Z,1029.80
2019-01-06T13:15:25.362Z,1029.80
2019-01-06T13:16:25.310Z,1029.81
2019-01-06T13:17:25.380Z,1029.76
2019-01-06T13:18:25.267Z,1029.76
2019-01-06T13:19:25.281Z,1029.76
2019-01-06T13:20:25.210Z,1029.70
2019-01-06T13:21:25.298Z,1029.74
2019-01-06T13:22:25.160Z,1029.79
2019-01-06T13:23:25.139Z,1029.79
2019-01-06T13:24:25.107Z,1029.78
2019-01-06T13:25:25.124Z,1029.77
2019-01-06T13:26:25.061Z,1029.75
2019-01-06T13:27:25.138Z,1029.76
2019-01-06T13:28:25.010Z,1029.75
2019-01-06T13:29:24.990Z,1029.73
2019-01-06T13:30:25.049Z,1029.74
2019-01-06T13:31:24.931Z,1029.74
2019-01-06T13:32:24.971Z,1029.73
2019-01-06T13:33:24.890Z,1029.77
2019-01-06T13:34:24.861Z,1029.77
2019-01-06T13:35:24.845Z,1029.80
2019-01-06T13:36:24.888Z,1029.77
2019-01-06T13:37:24.794Z,1029.84
2019-01-06T13:38:24.800Z,1029.84
2019-01-06T13:39:24.743Z,1029.84
2019-01-06T13:40:24.830Z,1029.89
2019-01-06T13:41:24.692Z,1029.91
2019-01-06T13:42:24.739Z,1029.86
2019-01-06T13:43:24.640Z,1029.92
2019-01-06T13:44:24.641Z,1029.86
2019-01-06T13:45:24.583Z,1029.92
2019-01-06T13:46:24.671Z,1029.99
2019-01-06T13:47:24.518Z,1029.95
2019-01-06T13:48:24.570Z,1029.97